Terminal Aerodrome Forecast
Issued by NWS Cleveland, OH

Home | Current Version | Previous Version | Text Only | Print | Product List | Glossary Off
Versions: 1 2 3 4 5 6 7 8 9 10 11 12 13 14 15 16

000
FTUS41 KCLE 251900 AAA
TAFTOL
TAF AMD
KTOL 251924Z 2519/2618 25015G25KT P6SM OVC020
     FM260200 27006KT P6SM SCT020 BKN250
     FM260600 VRB03KT P6SM BKN250
     FM261400 07003KT P6SM SCT250=

USA.gov is the U.S. government's official web portal to all federal, state and local government web resources and services.